createdAt,value
2018-09-12T00:00:37.913Z,17.00
2018-09-12T00:03:06.246Z,17.00
2018-09-12T00:05:34.554Z,16.90
2018-09-12T00:08:02.850Z,16.90
2018-09-12T00:10:31.122Z,16.90
2018-09-12T00:12:59.356Z,16.80
2018-09-12T00:15:27.723Z,16.80
2018-09-12T00:17:55.962Z,16.80
2018-09-12T00:20:24.237Z,16.80
2018-09-12T00:22:52.657Z,16.70
2018-09-12T00:25:20.937Z,16.60
2018-09-12T00:27:49.195Z,16.60
2018-09-12T00:30:17.494Z,16.50
2018-09-12T00:32:45.729Z,16.50
2018-09-12T00:35:14.251Z,16.40
2018-09-12T00:37:42.500Z,16.40
2018-09-12T00:40:10.757Z,16.30
2018-09-12T00:42:39.002Z,16.30
2018-09-12T00:45:07.338Z,16.20
2018-09-12T00:47:35.582Z,16.20
2018-09-12T00:50:03.871Z,16.20
2018-09-12T00:52:32.156Z,16.10
2018-09-12T00:55:00.414Z,16.10
2018-09-12T00:57:28.746Z,16.10
2018-09-12T00:59:57.134Z,16.10
2018-09-12T01:02:25.614Z,16.10
2018-09-12T01:04:53.956Z,16.00
2018-09-12T01:07:22.219Z,16.00
2018-09-12T01:09:50.469Z,16.00
2018-09-12T01:12:18.754Z,16.00
2018-09-12T01:14:47.026Z,16.00
2018-09-12T01:17:15.314Z,16.00
2018-09-12T01:19:44.992Z,16.00
2018-09-12T01:22:13.310Z,15.90
2018-09-12T01:24:41.557Z,15.90
2018-09-12T01:27:09.850Z,15.80
2018-09-12T01:29:38.198Z,15.70
2018-09-12T01:32:06.467Z,15.70
2018-09-12T01:34:34.710Z,15.60
2018-09-12T01:37:02.981Z,15.60
2018-09-12T01:39:31.223Z,15.50
2018-09-12T01:41:59.574Z,15.50
2018-09-12T01:44:27.834Z,15.40
2018-09-12T01:46:56.137Z,15.40
2018-09-12T01:49:24.438Z,15.40
2018-09-12T01:51:52.712Z,15.30
2018-09-12T01:54:20.971Z,15.30
2018-09-12T01:56:49.257Z,15.30
2018-09-12T01:59:17.629Z,15.20
2018-09-12T02:01:46.196Z,15.20
2018-09-12T02:04:14.593Z,15.20
2018-09-12T02:06:42.885Z,15.20
2018-09-12T02:09:14.017Z,15.10
2018-09-12T02:11:42.315Z,15.10
2018-09-12T02:14:10.601Z,15.10
2018-09-12T02:16:38.901Z,15.10
2018-09-12T02:19:07.181Z,15.10
2018-09-12T02:21:35.492Z,15.10
2018-09-12T02:24:03.737Z,15.10
2018-09-12T02:26:32.031Z,15.10
2018-09-12T02:29:00.339Z,15.10
2018-09-12T02:31:28.589Z,15.10
2018-09-12T02:33:56.825Z,15.00
2018-09-12T02:36:29.264Z,15.00
2018-09-12T02:38:58.758Z,15.00
2018-09-12T02:41:27.021Z,14.90
2018-09-12T02:43:55.638Z,14.90
2018-09-12T02:46:24.063Z,14.90
2018-09-12T02:48:52.609Z,14.90
2018-09-12T02:51:20.893Z,14.90
2018-09-12T02:53:49.126Z,14.90
2018-09-12T02:56:17.739Z,14.90
2018-09-12T02:58:46.217Z,14.90
2018-09-12T03:01:14.599Z,14.90
2018-09-12T03:03:43.080Z,14.90
2018-09-12T03:06:11.395Z,14.90
2018-09-12T03:08:39.658Z,14.90
2018-09-12T03:11:07.919Z,14.90
2018-09-12T03:13:36.394Z,14.90
2018-09-12T03:16:04.671Z,14.80
2018-09-12T03:18:32.936Z,14.90
2018-09-12T03:21:01.460Z,14.90
2018-09-12T03:23:29.709Z,14.80
2018-09-12T03:25:57.928Z,14.80
2018-09-12T03:28:26.265Z,14.70
2018-09-12T03:30:54.499Z,14.70
2018-09-12T03:33:22.768Z,14.70
2018-09-12T03:35:51.036Z,14.60
2018-09-12T03:38:19.380Z,14.60
2018-09-12T03:40:47.855Z,14.50
2018-09-12T03:43:16.114Z,14.50
2018-09-12T03:45:44.346Z,14.50
2018-09-12T03:48:12.760Z,14.40
2018-09-12T03:50:40.942Z,14.40
2018-09-12T03:53:09.238Z,14.30
2018-09-12T03:55:37.473Z,14.30
2018-09-12T03:58:05.908Z,14.30
2018-09-12T04:00:34.182Z,14.30
2018-09-12T04:03:02.454Z,14.30
2018-09-12T04:05:30.682Z,14.30
2018-09-12T04:07:59.053Z,14.30
2018-09-12T04:10:27.292Z,14.20
2018-09-12T04:12:55.542Z,14.30
2018-09-12T04:15:23.809Z,14.20
2018-09-12T04:17:52.065Z,14.30
2018-09-12T04:20:20.317Z,14.30
2018-09-12T04:22:48.685Z,14.20
2018-09-12T04:25:16.949Z,14.20
2018-09-12T04:27:45.352Z,14.20
2018-09-12T04:30:20.084Z,14.30
2018-09-12T04:32:48.332Z,14.20
2018-09-12T04:35:16.616Z,14.20
2018-09-12T04:37:44.898Z,14.20
2018-09-12T04:40:13.135Z,14.20
2018-09-12T04:42:41.473Z,14.10
2018-09-12T04:45:09.676Z,14.10
2018-09-12T04:47:37.923Z,14.10
2018-09-12T04:50:07.272Z,14.10
2018-09-12T04:52:35.535Z,14.10
2018-09-12T04:55:03.807Z,14.10
2018-09-12T04:57:32.104Z,14.10
2018-09-12T05:00:00.348Z,14.10
2018-09-12T05:02:28.601Z,14.10
2018-09-12T05:04:56.937Z,14.10
2018-09-12T05:07:25.244Z,14.10
2018-09-12T05:09:53.483Z,14.10
2018-09-12T05:12:21.782Z,14.20
2018-09-12T05:14:50.070Z,14.20
2018-09-12T05:17:18.325Z,14.10
2018-09-12T05:19:46.637Z,14.20
2018-09-12T05:22:14.897Z,14.20
2018-09-12T05:24:43.295Z,14.30
2018-09-12T05:27:11.589Z,14.30
2018-09-12T05:29:39.955Z,14.40
2018-09-12T05:32:08.222Z,14.50
2018-09-12T05:34:36.481Z,14.60
2018-09-12T05:37:04.754Z,14.80
2018-09-12T05:39:33.021Z,15.00
2018-09-12T05:42:01.318Z,15.10
2018-09-12T05:44:29.617Z,15.30
2018-09-12T05:46:57.878Z,15.50
2018-09-12T05:49:26.171Z,15.60
2018-09-12T05:51:54.441Z,15.80
2018-09-12T05:54:22.714Z,16.00
2018-09-12T05:56:50.991Z,16.10
2018-09-12T05:59:19.286Z,16.30
2018-09-12T06:01:47.534Z,16.50
2018-09-12T06:04:15.803Z,16.60
2018-09-12T06:06:44.172Z,16.80
2018-09-12T06:09:12.439Z,16.90
2018-09-12T06:11:40.690Z,17.10
2018-09-12T06:14:09.070Z,17.30
2018-09-12T06:16:37.328Z,17.60
2018-09-12T06:19:05.607Z,17.80
2018-09-12T06:21:33.859Z,17.80
2018-09-12T06:24:02.117Z,18.10
2018-09-12T06:26:30.367Z,18.20
2018-09-12T06:28:58.716Z,18.20
2018-09-12T06:31:26.962Z,18.60
2018-09-12T06:33:55.267Z,19.00
2018-09-12T06:36:23.610Z,19.50
2018-09-12T06:38:51.867Z,20.10
2018-09-12T06:41:20.106Z,20.30
2018-09-12T06:43:48.803Z,20.30
2018-09-12T06:46:17.050Z,20.10
2018-09-12T06:48:45.444Z,20.40
2018-09-12T06:51:13.682Z,20.70
2018-09-12T06:53:41.930Z,20.90
2018-09-12T06:56:10.277Z,21.00
2018-09-12T06:58:38.553Z,20.90
2018-09-12T07:01:07.177Z,20.70
2018-09-12T07:03:35.442Z,20.50
2018-09-12T07:06:03.798Z,20.50
2018-09-12T07:08:32.073Z,20.60
2018-09-12T07:11:00.329Z,20.70
2018-09-12T07:13:28.627Z,20.90
2018-09-12T07:15:56.882Z,21.10
2018-09-12T07:18:25.134Z,21.00
2018-09-12T07:20:53.376Z,20.90
2018-09-12T07:23:21.613Z,21.00
2018-09-12T07:25:49.851Z,21.30
2018-09-12T07:28:18.117Z,21.50
2018-09-12T07:30:46.371Z,21.80
2018-09-12T07:33:14.622Z,22.00
2018-09-12T07:35:42.878Z,22.40
2018-09-12T07:38:11.140Z,22.60
2018-09-12T07:40:39.370Z,22.90
2018-09-12T07:43:07.636Z,23.00
2018-09-12T07:45:35.884Z,23.10
2018-09-12T07:48:04.152Z,23.30
2018-09-12T07:50:32.410Z,23.40
2018-09-12T07:53:00.685Z,23.70
2018-09-12T07:55:28.918Z,23.90
2018-09-12T07:57:57.187Z,24.10
2018-09-12T08:00:25.499Z,24.50
2018-09-12T08:02:53.695Z,24.80
2018-09-12T08:05:21.948Z,25.20
2018-09-12T08:07:50.206Z,25.10
2018-09-12T08:10:18.478Z,25.20
2018-09-12T08:12:46.762Z,25.30
2018-09-12T08:15:15.068Z,25.60
2018-09-12T08:17:43.435Z,25.80
2018-09-12T08:20:11.815Z,26.40
2018-09-12T08:22:40.071Z,26.80
2018-09-12T08:25:08.368Z,27.40
2018-09-12T08:27:36.615Z,27.90
2018-09-12T08:30:04.955Z,28.40
2018-09-12T08:32:33.205Z,28.50
2018-09-12T08:35:01.455Z,28.70
2018-09-12T08:37:29.726Z,29.00
2018-09-12T08:39:58.009Z,29.30
2018-09-12T08:42:26.311Z,29.70
2018-09-12T08:44:54.669Z,30.00
2018-09-12T08:47:22.921Z,29.90
2018-09-12T08:49:51.226Z,30.00
2018-09-12T08:52:19.499Z,31.70
2018-09-12T08:54:47.782Z,33.60
2018-09-12T08:57:16.030Z,34.30
2018-09-12T08:59:44.287Z,34.90
2018-09-12T09:02:12.534Z,34.80
2018-09-12T09:04:40.909Z,35.20
2018-09-12T09:07:09.151Z,35.40
2018-09-12T09:09:37.489Z,35.00
2018-09-12T09:12:05.409Z,35.60
2018-09-12T09:14:33.669Z,37.00
2018-09-12T09:17:01.919Z,37.70
2018-09-12T09:19:30.180Z,38.30
2018-09-12T09:21:58.430Z,38.60
2018-09-12T09:24:26.707Z,39.30
2018-09-12T09:26:54.947Z,39.50
2018-09-12T09:29:23.211Z,39.30
2018-09-12T09:31:51.498Z,39.20
2018-09-12T09:34:19.829Z,38.60
2018-09-12T09:36:48.075Z,38.10
2018-09-12T09:39:16.346Z,37.60
2018-09-12T09:41:44.661Z,36.70
2018-09-12T09:44:12.918Z,36.30
2018-09-12T09:46:41.173Z,35.50
2018-09-12T09:49:09.443Z,35.30
2018-09-12T09:51:37.771Z,35.80
2018-09-12T09:54:06.039Z,36.00
2018-09-12T09:56:34.304Z,34.40
2018-09-12T09:59:02.566Z,32.40
2018-09-12T10:01:36.338Z,30.50
2018-09-12T10:04:10.061Z,29.60
2018-09-12T10:06:43.923Z,28.90
2018-09-12T10:09:17.552Z,28.60
2018-09-12T10:11:45.933Z,28.20
2018-09-12T10:14:14.166Z,27.90
2018-09-12T10:16:42.461Z,27.80
2018-09-12T10:19:10.736Z,27.80
2018-09-12T10:21:38.965Z,27.90
2018-09-12T10:24:07.299Z,28.10
2018-09-12T10:26:35.526Z,28.30
2018-09-12T10:29:03.783Z,28.60
2018-09-12T10:31:32.023Z,28.40
2018-09-12T10:34:00.266Z,28.30
2018-09-12T10:36:28.515Z,28.00
2018-09-12T10:38:56.767Z,28.00
2018-09-12T10:41:25.031Z,27.90
2018-09-12T10:43:53.514Z,27.80
2018-09-12T10:46:21.998Z,27.80
2018-09-12T10:48:50.271Z,27.80
2018-09-12T10:51:18.518Z,27.80
2018-09-12T10:53:46.830Z,27.90
2018-09-12T10:56:15.214Z,27.90
2018-09-12T10:58:43.456Z,27.90
2018-09-12T11:01:11.715Z,27.80
2018-09-12T11:03:39.944Z,27.70
2018-09-12T11:06:08.418Z,27.70
2018-09-12T11:08:36.650Z,27.70
2018-09-12T11:11:04.962Z,27.70
2018-09-12T11:13:33.451Z,27.70
2018-09-12T11:16:01.733Z,27.70
2018-09-12T11:18:29.989Z,27.70
2018-09-12T11:20:58.261Z,27.70
2018-09-12T11:23:26.649Z,27.70
2018-09-12T11:25:55.052Z,27.70
2018-09-12T11:28:23.335Z,27.80
2018-09-12T11:30:51.582Z,27.80
2018-09-12T11:33:19.880Z,27.80
2018-09-12T11:35:48.363Z,27.80
2018-09-12T11:38:16.673Z,27.80
2018-09-12T11:40:45.023Z,27.80
2018-09-12T11:43:13.291Z,27.80
2018-09-12T11:45:41.546Z,27.80
2018-09-12T11:48:09.797Z,27.90
2018-09-12T11:50:38.066Z,27.80
2018-09-12T11:53:06.408Z,27.90
2018-09-12T11:55:34.879Z,27.90
2018-09-12T11:58:03.047Z,27.90
2018-09-12T12:00:31.343Z,27.90
2018-09-12T12:02:59.577Z,28.00
2018-09-12T12:05:27.899Z,28.00
2018-09-12T12:07:56.161Z,28.00
2018-09-12T12:10:24.459Z,28.20
2018-09-12T12:12:52.677Z,28.30
2018-09-12T12:15:21.040Z,28.30
2018-09-12T12:17:49.248Z,28.30
2018-09-12T12:20:17.514Z,28.30
2018-09-12T12:22:45.746Z,28.30
2018-09-12T12:25:13.990Z,28.30
2018-09-12T12:27:42.262Z,28.30
2018-09-12T12:30:10.522Z,28.20
2018-09-12T12:32:38.750Z,28.30
2018-09-12T12:35:07.028Z,28.30
2018-09-12T12:37:35.259Z,28.30
2018-09-12T12:40:03.549Z,28.30
2018-09-12T12:42:31.783Z,28.30
2018-09-12T12:45:00.030Z,28.30
2018-09-12T12:47:28.515Z,28.40
2018-09-12T12:49:56.899Z,28.40
2018-09-12T12:52:25.150Z,28.30
2018-09-12T12:54:53.554Z,28.30
2018-09-12T12:57:21.804Z,28.40
2018-09-12T12:59:50.044Z,28.50
2018-09-12T13:02:18.297Z,28.50
2018-09-12T13:04:46.539Z,28.60
2018-09-12T13:07:14.837Z,28.50
2018-09-12T13:09:43.083Z,28.50
2018-09-12T13:12:11.394Z,28.50
2018-09-12T13:14:39.662Z,28.50
2018-09-12T13:17:07.889Z,28.50
2018-09-12T13:19:36.142Z,28.50
2018-09-12T13:22:04.402Z,28.50
2018-09-12T13:24:32.641Z,28.60
2018-09-12T13:27:00.954Z,28.60
2018-09-12T13:29:29.200Z,28.60
2018-09-12T13:31:57.456Z,28.60
2018-09-12T13:34:25.798Z,28.60
2018-09-12T13:36:53.974Z,28.50
2018-09-12T13:39:22.211Z,28.50
2018-09-12T13:41:50.462Z,28.50
2018-09-12T13:44:18.741Z,28.40
2018-09-12T13:46:47.079Z,28.50
2018-09-12T13:49:15.326Z,28.60
2018-09-12T13:51:43.576Z,28.60
2018-09-12T13:54:11.806Z,28.70
2018-09-12T13:56:40.073Z,28.60
2018-09-12T13:59:08.302Z,28.60
2018-09-12T14:01:36.561Z,28.70
2018-09-12T14:04:04.791Z,28.70
2018-09-12T14:06:33.088Z,28.70
2018-09-12T14:09:01.341Z,28.80
2018-09-12T14:11:29.627Z,28.80
2018-09-12T14:13:57.921Z,28.80
2018-09-12T14:16:26.172Z,28.80
2018-09-12T14:18:54.417Z,28.80
2018-09-12T14:21:22.674Z,28.80
2018-09-12T14:23:50.928Z,28.90
2018-09-12T14:26:19.174Z,28.90
2018-09-12T14:28:47.486Z,29.00
2018-09-12T14:31:15.742Z,29.00
2018-09-12T14:33:44.023Z,28.80
2018-09-12T14:36:12.265Z,28.80
2018-09-12T14:38:40.685Z,28.90
2018-09-12T14:41:09.186Z,29.00
2018-09-12T14:43:37.562Z,29.00
2018-09-12T14:46:05.789Z,29.10
2018-09-12T14:48:34.034Z,29.10
2018-09-12T14:51:02.292Z,29.10
2018-09-12T14:53:30.568Z,29.10
2018-09-12T14:55:58.789Z,29.10
2018-09-12T14:58:27.042Z,29.10
2018-09-12T15:00:55.590Z,29.10
2018-09-12T15:03:24.101Z,29.10
2018-09-12T15:05:52.334Z,29.00
2018-09-12T15:08:20.604Z,29.00
2018-09-12T15:10:48.863Z,29.00
2018-09-12T15:13:17.128Z,28.90
2018-09-12T15:15:45.476Z,28.90
2018-09-12T15:18:13.738Z,28.80
2018-09-12T15:20:41.977Z,28.80
2018-09-12T15:23:10.226Z,28.80
2018-09-12T15:25:38.584Z,28.80
2018-09-12T15:28:06.964Z,28.80
2018-09-12T15:30:35.210Z,28.70
2018-09-12T15:33:03.519Z,28.70
2018-09-12T15:35:31.759Z,28.70
2018-09-12T15:38:00.073Z,28.70
2018-09-12T15:40:28.557Z,28.70
2018-09-12T15:42:56.831Z,28.60
2018-09-12T15:45:25.087Z,28.60
2018-09-12T15:47:53.603Z,28.60
2018-09-12T15:50:23.598Z,28.50
2018-09-12T15:52:51.941Z,28.40
2018-09-12T15:55:20.217Z,28.40
2018-09-12T15:57:48.580Z,28.30
2018-09-12T16:00:16.817Z,28.30
2018-09-12T16:02:45.267Z,28.20
2018-09-12T16:05:13.689Z,28.20
2018-09-12T16:07:41.974Z,28.20
2018-09-12T16:10:10.394Z,28.10
2018-09-12T16:12:38.831Z,28.10
2018-09-12T16:15:07.107Z,28.10
2018-09-12T16:17:35.486Z,28.00
2018-09-12T16:20:03.864Z,28.00
2018-09-12T16:22:32.166Z,28.00
2018-09-12T16:25:00.528Z,28.00
2018-09-12T16:27:28.802Z,27.90
2018-09-12T16:29:57.055Z,27.90
2018-09-12T16:32:25.390Z,27.90
2018-09-12T16:34:53.681Z,27.80
2018-09-12T16:37:21.930Z,27.80
2018-09-12T16:39:50.193Z,27.70
2018-09-12T16:42:18.466Z,27.60
2018-09-12T16:44:46.709Z,27.50
2018-09-12T16:47:15.023Z,27.50
2018-09-12T16:49:43.291Z,27.40
2018-09-12T16:52:11.577Z,27.30
2018-09-12T16:54:39.842Z,27.30
2018-09-12T16:57:08.133Z,27.20
2018-09-12T16:59:36.381Z,27.10
2018-09-12T17:02:04.688Z,27.10
2018-09-12T17:04:32.946Z,27.00
2018-09-12T17:07:01.191Z,26.90
2018-09-12T17:09:29.442Z,26.80
2018-09-12T17:11:57.682Z,26.80
2018-09-12T17:14:25.938Z,26.80
2018-09-12T17:16:54.382Z,26.70
2018-09-12T17:19:22.665Z,26.60
2018-09-12T17:21:51.215Z,26.50
2018-09-12T17:24:19.492Z,26.40
2018-09-12T17:26:47.784Z,26.30
2018-09-12T17:29:16.160Z,26.20
2018-09-12T17:31:44.952Z,26.10
2018-09-12T17:34:13.294Z,26.10
2018-09-12T17:36:41.702Z,25.90
2018-09-12T17:39:10.509Z,25.80
2018-09-12T17:41:38.903Z,25.80
2018-09-12T17:44:07.363Z,25.60
2018-09-12T17:46:35.735Z,25.50
2018-09-12T17:49:04.436Z,25.40
2018-09-12T17:51:33.961Z,25.30
2018-09-12T17:54:02.866Z,25.20
2018-09-12T17:56:31.214Z,25.00
2018-09-12T17:58:59.625Z,24.90
2018-09-12T18:01:27.962Z,24.80
2018-09-12T18:03:56.338Z,24.80
2018-09-12T18:06:24.778Z,24.80
2018-09-12T18:08:53.321Z,24.70
2018-09-12T18:11:22.792Z,24.60
2018-09-12T18:13:51.201Z,24.50
2018-09-12T18:16:19.778Z,24.40
2018-09-12T18:18:48.532Z,24.30
2018-09-12T18:21:16.832Z,24.30
2018-09-12T18:23:45.298Z,24.20
2018-09-12T18:26:13.664Z,24.10
2018-09-12T18:28:42.018Z,24.00
2018-09-12T18:31:10.304Z,23.90
2018-09-12T18:33:38.621Z,23.80
2018-09-12T18:36:06.992Z,23.80
2018-09-12T18:38:35.246Z,23.60
2018-09-12T18:41:03.658Z,23.50
2018-09-12T18:43:31.962Z,23.40
2018-09-12T18:46:00.267Z,23.30
2018-09-12T18:48:28.617Z,23.20
2018-09-12T18:50:57.093Z,23.10
2018-09-12T18:53:25.574Z,23.00
2018-09-12T18:55:53.987Z,22.90
2018-09-12T18:58:22.313Z,22.80
2018-09-12T19:00:50.667Z,22.80
2018-09-12T19:03:19.058Z,22.90
2018-09-12T19:05:47.354Z,23.10
2018-09-12T19:08:15.629Z,23.10
2018-09-12T19:10:44.007Z,23.20
2018-09-12T19:13:12.312Z,23.30
2018-09-12T19:15:40.529Z,23.40
2018-09-12T19:18:08.773Z,23.40
2018-09-12T19:20:37.147Z,23.50
2018-09-12T19:23:05.592Z,23.40
2018-09-12T19:25:33.835Z,23.40
2018-09-12T19:28:02.093Z,23.40
2018-09-12T19:30:30.385Z,23.40
2018-09-12T19:32:58.736Z,23.40
2018-09-12T19:35:26.966Z,23.30
2018-09-12T19:37:55.267Z,23.30
2018-09-12T19:40:23.671Z,23.30
2018-09-12T19:42:51.941Z,23.30
2018-09-12T19:45:20.176Z,23.20
2018-09-12T19:47:49.525Z,23.20
2018-09-12T19:50:17.871Z,23.10
2018-09-12T19:52:46.185Z,23.00
2018-09-12T19:55:14.430Z,22.90
2018-09-12T19:57:42.787Z,22.80
2018-09-12T20:00:15.599Z,22.80
2018-09-12T20:02:43.870Z,22.70
2018-09-12T20:05:12.162Z,22.60
2018-09-12T20:07:40.459Z,22.50
2018-09-12T20:10:08.735Z,22.40
2018-09-12T20:12:37.042Z,22.30
2018-09-12T20:15:05.346Z,22.20
2018-09-12T20:17:33.648Z,22.00
2018-09-12T20:20:01.894Z,21.90
2018-09-12T20:22:30.324Z,21.90
2018-09-12T20:24:58.682Z,21.70
2018-09-12T20:27:27.002Z,21.70
2018-09-12T20:29:55.388Z,21.60
2018-09-12T20:32:23.639Z,21.50
2018-09-12T20:34:52.023Z,21.40
2018-09-12T20:37:20.397Z,21.30
2018-09-12T20:39:48.661Z,21.20
2018-09-12T20:42:16.930Z,21.10
2018-09-12T20:44:45.201Z,20.70
2018-09-12T20:47:13.489Z,20.30
2018-09-12T20:49:41.762Z,19.80
2018-09-12T20:52:10.039Z,19.50
2018-09-12T20:54:38.340Z,19.20
2018-09-12T20:57:06.642Z,19.20
2018-09-12T20:59:34.931Z,19.20
2018-09-12T21:02:10.032Z,19.40
2018-09-12T21:04:38.290Z,19.50
2018-09-12T21:07:06.609Z,19.60
2018-09-12T21:09:34.865Z,19.70
2018-09-12T21:12:03.247Z,19.70
2018-09-12T21:14:31.923Z,19.70
2018-09-12T21:17:00.217Z,19.70
2018-09-12T21:19:28.469Z,19.70
2018-09-12T21:21:56.790Z,19.60
2018-09-12T21:24:25.081Z,19.60
2018-09-12T21:26:53.345Z,19.50
2018-09-12T21:29:21.617Z,19.40
2018-09-12T21:31:49.885Z,19.30
2018-09-12T21:34:18.260Z,19.30
2018-09-12T21:36:46.538Z,19.10
2018-09-12T21:39:14.784Z,19.10
2018-09-12T21:41:44.024Z,19.00
2018-09-12T21:44:12.297Z,18.90
2018-09-12T21:46:40.678Z,18.80
2018-09-12T21:49:08.936Z,18.80
2018-09-12T21:51:37.335Z,18.60
2018-09-12T21:54:05.726Z,18.60
2018-09-12T21:56:35.165Z,18.50
2018-09-12T21:59:04.725Z,18.50
2018-09-12T22:01:34.037Z,18.50
2018-09-12T22:04:02.420Z,18.40
2018-09-12T22:06:30.795Z,18.30
2018-09-12T22:08:59.241Z,18.20
2018-09-12T22:11:27.492Z,18.20
2018-09-12T22:13:56.642Z,18.20
2018-09-12T22:16:25.010Z,18.10
2018-09-12T22:18:53.291Z,18.00
2018-09-12T22:21:21.539Z,18.00
2018-09-12T22:23:49.803Z,17.90
2018-09-12T22:26:18.045Z,17.90
2018-09-12T22:28:46.328Z,17.80
2018-09-12T22:31:14.598Z,17.80
2018-09-12T22:33:42.887Z,17.70
2018-09-12T22:36:11.173Z,17.60
2018-09-12T22:38:39.441Z,17.60
2018-09-12T22:41:07.797Z,17.60
2018-09-12T22:43:36.046Z,17.50
2018-09-12T22:46:04.302Z,17.50
2018-09-12T22:48:32.841Z,17.50
2018-09-12T22:51:01.535Z,17.50
2018-09-12T22:53:30.008Z,17.40
2018-09-12T22:55:58.591Z,17.40
2018-09-12T22:58:26.852Z,17.40
2018-09-12T23:00:55.094Z,17.40
2018-09-12T23:03:23.353Z,17.40
2018-09-12T23:05:51.702Z,17.30
2018-09-12T23:08:19.953Z,17.30
2018-09-12T23:10:48.308Z,17.30
2018-09-12T23:13:16.555Z,17.30
2018-09-12T23:15:44.897Z,17.20
2018-09-12T23:18:13.306Z,17.20
2018-09-12T23:20:41.541Z,17.20
2018-09-12T23:23:09.822Z,17.20
2018-09-12T23:25:38.082Z,17.20
2018-09-12T23:28:06.358Z,17.20
2018-09-12T23:30:34.655Z,17.20
2018-09-12T23:33:02.930Z,17.20
2018-09-12T23:35:31.206Z,17.20
2018-09-12T23:37:59.486Z,17.20
2018-09-12T23:40:27.802Z,17.10
2018-09-12T23:42:56.066Z,17.10
2018-09-12T23:45:24.517Z,17.10
2018-09-12T23:47:52.842Z,17.10
2018-09-12T23:50:21.070Z,17.00
2018-09-12T23:52:49.349Z,17.00
2018-09-12T23:55:17.606Z,17.00
2018-09-12T23:57:45.890Z,17.00
